sensor_id;sensor_type;location;lat;lon;timestamp;pressure;altitude;pressure_sealevel;temperature;humidity
57102;BME280;42982;54.558;18.508;2022-08-14T00:00:58;101036.06;;;20.50;nan
57102;BME280;42982;54.558;18.508;2022-08-14T00:02:03;101032.72;;;20.44;nan
57102;BME280;42982;54.558;18.508;2022-08-14T00:03:05;101039.13;;;20.48;nan
57102;BME280;42982;54.558;18.508;2022-08-14T00:04:09;101035.59;;;20.48;nan
57102;BME280;42982;54.558;18.508;2022-08-14T00:05:17;101041.53;;;20.50;nan
57102;BME280;42982;54.558;18.508;2022-08-14T00:06:19;101038.00;;;20.49;nan
57102;BME280;42982;54.558;18.508;2022-08-14T00:07:27;101038.47;;;20.51;nan
57102;BME280;42982;54.558;18.508;2022-08-14T00:08:30;101033.66;;;20.48;nan
57102;BME280;42982;54.558;18.508;2022-08-14T00:09:39;101035.13;;;20.46;nan
57102;BME280;42982;54.558;18.508;2022-08-14T00:10:41;101030.47;;;20.46;nan
57102;BME280;42982;54.558;18.508;2022-08-14T00:11:51;101034.44;;;20.49;nan
57102;BME280;42982;54.558;18.508;2022-08-14T00:12:56;101029.81;;;20.49;nan
57102;BME280;42982;54.558;18.508;2022-08-14T00:14:00;101025.16;;;20.50;nan
57102;BME280;42982;54.558;18.508;2022-08-14T00:15:12;101024.34;;;20.49;nan
57102;BME280;42982;54.558;18.508;2022-08-14T00:16:17;101023.72;;;20.52;nan
57102;BME280;42982;54.558;18.508;2022-08-14T00:17:19;101026.44;;;20.52;nan
57102;BME280;42982;54.558;18.508;2022-08-14T00:18:27;101016.81;;;20.46;nan
57102;BME280;42982;54.558;18.508;2022-08-14T00:19:32;101022.94;;;20.43;nan
57102;BME280;42982;54.558;18.508;2022-08-14T00:20:41;101019.41;;;20.43;nan
57102;BME280;42982;54.558;18.508;2022-08-14T00:21:50;101018.59;;;20.42;nan
57102;BME280;42982;54.558;18.508;2022-08-14T00:22:56;101012.69;;;20.40;nan
57102;BME280;42982;54.558;18.508;2022-08-14T00:24:02;101018.28;;;20.44;nan
57102;BME280;42982;54.558;18.508;2022-08-14T00:25:07;101014.75;;;20.43;nan
57102;BME280;42982;54.558;18.508;2022-08-14T00:26:12;101016.34;;;20.44;nan
57102;BME280;42982;54.558;18.508;2022-08-14T00:27:15;101005.91;;;20.46;nan
57102;BME280;42982;54.558;18.508;2022-08-14T00:28:17;101020.00;;;20.48;nan
57102;BME280;42982;54.558;18.508;2022-08-14T00:29:19;101018.88;;;20.49;nan
57102;BME280;42982;54.558;18.508;2022-08-14T00:30:24;101016.94;;;20.50;nan
57102;BME280;42982;54.558;18.508;2022-08-14T00:31:26;101023.72;;;20.52;nan
57102;BME280;42982;54.558;18.508;2022-08-14T00:32:29;101025.78;;;20.55;nan
57102;BME280;42982;54.558;18.508;2022-08-14T00:33:35;101016.75;;;20.55;nan
57102;BME280;42982;54.558;18.508;2022-08-14T00:34:40;101018.69;;;20.54;nan
57102;BME280;42982;54.558;18.508;2022-08-14T00:35:42;101015.97;;;20.54;nan
57102;BME280;42982;54.558;18.508;2022-08-14T00:36:47;101016.75;;;20.55;nan
57102;BME280;42982;54.558;18.508;2022-08-14T00:37:57;101013.72;;;20.56;nan
57102;BME280;42982;54.558;18.508;2022-08-14T00:39:04;101016.88;;;20.58;nan
57102;BME280;42982;54.558;18.508;2022-08-14T00:40:08;101016.88;;;20.58;nan
57102;BME280;42982;54.558;18.508;2022-08-14T00:41:15;101016.63;;;20.51;nan
57102;BME280;42982;54.558;18.508;2022-08-14T00:42:20;101015.53;;;20.52;nan
57102;BME280;42982;54.558;18.508;2022-08-14T00:43:24;101012.78;;;20.52;nan
57102;BME280;42982;54.558;18.508;2022-08-14T00:44:29;101013.25;;;20.46;nan
57102;BME280;42982;54.558;18.508;2022-08-14T00:45:30;101016.34;;;20.44;nan
57102;BME280;42982;54.558;18.508;2022-08-14T00:46:36;101010.88;;;20.44;nan
57102;BME280;42982;54.558;18.508;2022-08-14T00:47:39;101012.34;;;20.42;nan
57102;BME280;42982;54.558;18.508;2022-08-14T00:48:44;101013.00;;;20.38;nan
57102;BME280;42982;54.558;18.508;2022-08-14T00:49:47;101017.19;;;20.36;nan
57102;BME280;42982;54.558;18.508;2022-08-14T00:50:51;101010.94;;;20.35;nan
57102;BME280;42982;54.558;18.508;2022-08-14T00:51:58;101009.00;;;20.36;nan
57102;BME280;42982;54.558;18.508;2022-08-14T00:53:04;101009.00;;;20.36;nan
57102;BME280;42982;54.558;18.508;2022-08-14T00:54:06;101009.13;;;20.40;nan
57102;BME280;42982;54.558;18.508;2022-08-14T00:55:12;100998.69;;;20.42;nan
57102;BME280;42982;54.558;18.508;2022-08-14T00:56:14;101002.69;;;20.44;nan
57102;BME280;42982;54.558;18.508;2022-08-14T00:57:21;101007.56;;;20.38;nan
57102;BME280;42982;54.558;18.508;2022-08-14T00:58:23;101009.00;;;20.36;nan
57102;BME280;42982;54.558;18.508;2022-08-14T00:59:31;101000.56;;;20.29;nan
57102;BME280;42982;54.558;18.508;2022-08-14T01:00:33;101003.81;;;20.22;nan
57102;BME280;42982;54.558;18.508;2022-08-14T01:01:39;101004.97;;;20.21;nan
57102;BME280;42982;54.558;18.508;2022-08-14T01:02:43;101001.91;;;20.23;nan
57102;BME280;42982;54.558;18.508;2022-08-14T01:03:47;101001.56;;;20.24;nan
57102;BME280;42982;54.558;18.508;2022-08-14T01:04:56;101005.41;;;20.23;nan
57102;BME280;42982;54.558;18.508;2022-08-14T01:06:12;101002.09;;;20.18;nan
57102;BME280;42982;54.558;18.508;2022-08-14T01:07:21;100996.50;;;20.14;nan
57102;BME280;42982;54.558;18.508;2022-08-14T01:08:27;100997.31;;;20.14;nan
57102;BME280;42982;54.558;18.508;2022-08-14T01:09:34;100992.50;;;20.11;nan
57102;BME280;42982;54.558;18.508;2022-08-14T01:10:41;100989.31;;;20.09;nan
57102;BME280;42982;54.558;18.508;2022-08-14T01:11:52;100991.56;;;20.07;nan
57102;BME280;42982;54.558;18.508;2022-08-14T01:13:00;100989.97;;;20.06;nan
57102;BME280;42982;54.558;18.508;2022-08-14T01:14:04;100987.56;;;20.05;nan
57102;BME280;42982;54.558;18.508;2022-08-14T01:15:06;100984.50;;;20.06;nan
57102;BME280;42982;54.558;18.508;2022-08-14T01:16:13;100991.44;;;20.04;nan
57102;BME280;42982;54.558;18.508;2022-08-14T01:17:16;100993.69;;;20.02;nan
57102;BME280;42982;54.558;18.508;2022-08-14T01:18:28;100991.78;;;20.02;nan
57102;BME280;42982;54.558;18.508;2022-08-14T01:19:49;100989.50;;;20.04;nan
57102;BME280;42982;54.558;18.508;2022-08-14T01:21:15;100994.16;;;20.04;nan
57102;BME280;42982;54.558;18.508;2022-08-14T01:22:20;100995.16;;;19.99;nan
57102;BME280;42982;54.558;18.508;2022-08-14T01:23:28;100991.97;;;19.97;nan
57102;BME280;42982;54.558;18.508;2022-08-14T01:24:32;100988.75;;;19.95;nan
57102;BME280;42982;54.558;18.508;2022-08-14T01:25:37;100992.75;;;19.98;nan
57102;BME280;42982;54.558;18.508;2022-08-14T01:26:41;100984.91;;;19.96;nan
57102;BME280;42982;54.558;18.508;2022-08-14T01:27:46;100993.41;;;19.95;nan
57102;BME280;42982;54.558;18.508;2022-08-14T01:28:52;100999.22;;;19.93;nan
57102;BME280;42982;54.558;18.508;2022-08-14T01:30:00;100986.69;;;19.92;nan
57102;BME280;42982;54.558;18.508;2022-08-14T01:31:05;100985.09;;;19.91;nan
57102;BME280;42982;54.558;18.508;2022-08-14T01:32:11;100990.06;;;19.89;nan
57102;BME280;42982;54.558;18.508;2022-08-14T01:33:13;100988.00;;;19.86;nan
57102;BME280;42982;54.558;18.508;2022-08-14T01:34:17;100990.06;;;19.89;nan
57102;BME280;42982;54.558;18.508;2022-08-14T01:35:21;100984.78;;;19.93;nan
57102;BME280;42982;54.558;18.508;2022-08-14T01:36:27;100991.69;;;19.90;nan
57102;BME280;42982;54.558;18.508;2022-08-14T01:37:37;100993.28;;;19.91;nan
57102;BME280;42982;54.558;18.508;2022-08-14T01:38:45;100998.06;;;19.94;nan
57102;BME280;42982;54.558;18.508;2022-08-14T01:39:48;100996.94;;;19.95;nan
57102;BME280;42982;54.558;18.508;2022-08-14T01:40:54;100990.69;;;19.95;nan
57102;BME280;42982;54.558;18.508;2022-08-14T01:41:59;100988.09;;;19.98;nan
57102;BME280;42982;54.558;18.508;2022-08-14T01:43:01;100989.88;;;19.94;nan
57102;BME280;42982;54.558;18.508;2022-08-14T01:44:06;100986.03;;;19.95;nan
57102;BME280;42982;54.558;18.508;2022-08-14T01:45:15;100986.84;;;19.96;nan
57102;BME280;42982;54.558;18.508;2022-08-14T01:46:21;100986.50;;;19.97;nan
57102;BME280;42982;54.558;18.508;2022-08-14T01:47:42;100988.91;;;19.99;nan
57102;BME280;42982;54.558;18.508;2022-08-14T01:48:47;100979.44;;;19.96;nan
57102;BME280;42982;54.558;18.508;2022-08-14T01:49:52;100986.38;;;19.94;nan
57102;BME280;42982;54.558;18.508;2022-08-14T01:50:57;100983.94;;;19.92;nan
57102;BME280;42982;54.558;18.508;2022-08-14T01:52:04;100994.41;;;19.90;nan
57102;BME280;42982;54.558;18.508;2022-08-14T01:53:14;100991.69;;;19.90;nan
57102;BME280;42982;54.558;18.508;2022-08-14T01:54:20;100991.69;;;19.90;nan
57102;BME280;42982;54.558;18.508;2022-08-14T01:55:27;100990.56;;;19.91;nan
57102;BME280;42982;54.558;18.508;2022-08-14T01:56:33;100987.16;;;19.94;nan
57102;BME280;42982;54.558;18.508;2022-08-14T01:57:45;100981.69;;;19.94;nan
57102;BME280;42982;54.558;18.508;2022-08-14T01:58:49;100994.06;;;19.91;nan
57102;BME280;42982;54.558;18.508;2022-08-14T01:59:57;100987.16;;;19.94;nan
57102;BME280;42982;54.558;18.508;2022-08-14T02:00:59;100988.75;;;19.95;nan
57102;BME280;42982;54.558;18.508;2022-08-14T02:02:08;100987.28;;;19.98;nan
57102;BME280;42982;54.558;18.508;2022-08-14T02:03:14;100986.97;;;19.99;nan
57102;BME280;42982;54.558;18.508;2022-08-14T02:04:20;100983.78;;;19.97;nan
57102;BME280;42982;54.558;18.508;2022-08-14T02:05:26;100980.72;;;19.99;nan
57102;BME280;42982;54.558;18.508;2022-08-14T02:06:31;100977.66;;;20.00;nan
57102;BME280;42982;54.558;18.508;2022-08-14T02:07:36;100983.09;;;20.00;nan
57102;BME280;42982;54.558;18.508;2022-08-14T02:08:41;100978.78;;;19.99;nan
57102;BME280;42982;54.558;18.508;2022-08-14T02:09:47;100976.06;;;19.99;nan
57102;BME280;42982;54.558;18.508;2022-08-14T02:10:52;100979.59;;;20.00;nan
57102;BME280;42982;54.558;18.508;2022-08-14T02:12:14;100976.06;;;19.99;nan
57102;BME280;42982;54.558;18.508;2022-08-14T02:13:22;100973.53;;;19.94;nan
57102;BME280;42982;54.558;18.508;2022-08-14T02:14:24;100976.72;;;19.96;nan
57102;BME280;42982;54.558;18.508;2022-08-14T02:15:26;100975.09;;;19.95;nan
57102;BME280;42982;54.558;18.508;2022-08-14T02:16:30;100978.66;;;19.96;nan
57102;BME280;42982;54.558;18.508;2022-08-14T02:17:37;100970.91;;;19.98;nan
57102;BME280;42982;54.558;18.508;2022-08-14T02:18:44;100976.72;;;19.96;nan
57102;BME280;42982;54.558;18.508;2022-08-14T02:19:52;100970.13;;;19.97;nan
57102;BME280;42982;54.558;18.508;2022-08-14T02:20:57;100977.03;;;19.95;nan
57102;BME280;42982;54.558;18.508;2022-08-14T02:22:02;100977.38;;;19.93;nan
57102;BME280;42982;54.558;18.508;2022-08-14T02:23:11;100974.66;;;19.93;nan
57102;BME280;42982;54.558;18.508;2022-08-14T02:24:15;100970.31;;;19.92;nan
57102;BME280;42982;54.558;18.508;2022-08-14T02:25:17;100972.91;;;19.88;nan
57102;BME280;42982;54.558;18.508;2022-08-14T02:26:26;100974.38;;;19.86;nan
57102;BME280;42982;54.558;18.508;2022-08-14T02:27:28;100969.56;;;19.83;nan
57102;BME280;42982;54.558;18.508;2022-08-14T02:28:36;100977.75;;;19.83;nan
57102;BME280;42982;54.558;18.508;2022-08-14T02:29:43;100974.75;;;19.76;nan
57102;BME280;42982;54.558;18.508;2022-08-14T02:30:48;100973.66;;;19.77;nan
57102;BME280;42982;54.558;18.508;2022-08-14T02:32:09;100970.63;;;19.70;nan
57102;BME280;42982;54.558;18.508;2022-08-14T02:33:17;100970.63;;;19.70;nan
57102;BME280;42982;54.558;18.508;2022-08-14T02:34:20;100965.94;;;19.70;nan
57102;BME280;42982;54.558;18.508;2022-08-14T02:35:26;100970.63;;;19.70;nan
57102;BME280;42982;54.558;18.508;2022-08-14T02:36:28;100962.63;;;19.64;nan
57102;BME280;42982;54.558;18.508;2022-08-14T02:37:31;100967.59;;;19.62;nan
57102;BME280;42982;54.558;18.508;2022-08-14T02:38:34;100967.09;;;19.60;nan
57102;BME280;42982;54.558;18.508;2022-08-14T02:39:43;100967.09;;;19.60;nan
57102;BME280;42982;54.558;18.508;2022-08-14T02:40:47;100965.38;;;19.56;nan
57102;BME280;42982;54.558;18.508;2022-08-14T02:41:49;100973.22;;;19.57;nan
57102;BME280;42982;54.558;18.508;2022-08-14T02:42:59;100972.91;;;19.59;nan
57102;BME280;42982;54.558;18.508;2022-08-14T02:44:08;100968.09;;;19.56;nan
57102;BME280;42982;54.558;18.508;2022-08-14T02:45:15;100969.69;;;19.57;nan
57102;BME280;42982;54.558;18.508;2022-08-14T02:46:17;100968.91;;;19.56;nan
57102;BME280;42982;54.558;18.508;2022-08-14T02:47:23;100965.38;;;19.56;nan
57102;BME280;42982;54.558;18.508;2022-08-14T02:48:26;100964.91;;;19.54;nan
57102;BME280;42982;54.558;18.508;2022-08-14T02:49:39;100969.56;;;19.53;nan
57102;BME280;42982;54.558;18.508;2022-08-14T02:50:44;100965.25;;;19.52;nan
57102;BME280;42982;54.558;18.508;2022-08-14T02:51:56;100971.81;;;19.51;nan
57102;BME280;42982;54.558;18.508;2022-08-14T02:53:01;100973.88;;;19.54;nan
57102;BME280;42982;54.558;18.508;2022-08-14T02:54:07;100966.97;;;19.57;nan
57102;BME280;42982;54.558;18.508;2022-08-14T02:55:10;100964.25;;;19.57;nan
57102;BME280;42982;54.558;18.508;2022-08-14T02:56:15;100960.41;;;19.58;nan
57102;BME280;42982;54.558;18.508;2022-08-14T02:57:17;100962.00;;;19.59;nan
57102;BME280;42982;54.558;18.508;2022-08-14T02:58:20;100963.94;;;19.58;nan
57102;BME280;42982;54.558;18.508;2022-08-14T02:59:25;100953.00;;;19.58;nan
57102;BME280;42982;54.558;18.508;2022-08-14T03:00:33;100958.47;;;19.58;nan
57102;BME280;42982;54.558;18.508;2022-08-14T03:01:42;100970.66;;;19.61;nan
57102;BME280;42982;54.558;18.508;2022-08-14T03:02:45;100962.13;;;19.62;nan
57102;BME280;42982;54.558;18.508;2022-08-14T03:03:48;100964.38;;;19.60;nan
57102;BME280;42982;54.558;18.508;2022-08-14T03:04:52;100962.31;;;19.57;nan
57102;BME280;42982;54.558;18.508;2022-08-14T03:05:56;100967.44;;;19.59;nan
57102;BME280;42982;54.558;18.508;2022-08-14T03:07:03;100957.34;;;19.59;nan
57102;BME280;42982;54.558;18.508;2022-08-14T03:08:06;100960.06;;;19.59;nan
57102;BME280;42982;54.558;18.508;2022-08-14T03:09:11;100956.06;;;19.57;nan
57102;BME280;42982;54.558;18.508;2022-08-14T03:10:13;100957.69;;;19.58;nan
57102;BME280;42982;54.558;18.508;2022-08-14T03:11:15;100953.31;;;19.57;nan
57102;BME280;42982;54.558;18.508;2022-08-14T03:12:19;100960.22;;;19.54;nan
57102;BME280;42982;54.558;18.508;2022-08-14T03:13:22;100959.78;;;19.52;nan
57102;BME280;42982;54.558;18.508;2022-08-14T03:14:28;100959.31;;;19.50;nan
57102;BME280;42982;54.558;18.508;2022-08-14T03:15:31;100957.38;;;19.51;nan
57102;BME280;42982;54.558;18.508;2022-08-14T03:16:38;100956.09;;;19.48;nan
57102;BME280;42982;54.558;18.508;2022-08-14T03:17:44;100953.22;;;19.44;nan
57102;BME280;42982;54.558;18.508;2022-08-14T03:18:51;100946.38;;;19.38;nan
57102;BME280;42982;54.558;18.508;2022-08-14T03:19:59;100962.13;;;19.33;nan
57102;BME280;42982;54.558;18.508;2022-08-14T03:21:05;100958.91;;;19.31;nan
57102;BME280;42982;54.558;18.508;2022-08-14T03:22:15;100954.13;;;19.28;nan
57102;BME280;42982;54.558;18.508;2022-08-14T03:23:18;100956.38;;;19.26;nan
57102;BME280;42982;54.558;18.508;2022-08-14T03:24:20;100959.88;;;19.26;nan
57102;BME280;42982;54.558;18.508;2022-08-14T03:25:26;100957.97;;;19.27;nan
57102;BME280;42982;54.558;18.508;2022-08-14T03:26:33;100957.16;;;19.26;nan
57102;BME280;42982;54.558;18.508;2022-08-14T03:27:40;100957.16;;;19.26;nan
57102;BME280;42982;54.558;18.508;2022-08-14T03:28:47;100952.38;;;19.23;nan
57102;BME280;42982;54.558;18.508;2022-08-14T03:29:51;100956.06;;;19.27;nan
57102;BME280;42982;54.558;18.508;2022-08-14T03:30:55;100958.13;;;19.30;nan
57102;BME280;42982;54.558;18.508;2022-08-14T03:32:00;100955.53;;;19.34;nan
57102;BME280;42982;54.558;18.508;2022-08-14T03:33:09;100948.63;;;19.36;nan
57102;BME280;42982;54.558;18.508;2022-08-14T03:34:14;100947.84;;;19.36;nan
57102;BME280;42982;54.558;18.508;2022-08-14T03:35:17;100955.38;;;19.39;nan
57102;BME280;42982;54.558;18.508;2022-08-14T03:36:25;100948.28;;;19.38;nan
57102;BME280;42982;54.558;18.508;2022-08-14T03:37:35;100951.16;;;19.41;nan
57102;BME280;42982;54.558;18.508;2022-08-14T03:38:41;100954.72;;;19.42;nan
57102;BME280;42982;54.558;18.508;2022-08-14T03:39:43;100953.84;;;19.50;nan
57102;BME280;42982;54.558;18.508;2022-08-14T03:40:49;100948.22;;;19.55;nan
57102;BME280;42982;54.558;18.508;2022-08-14T03:41:55;100950.75;;;19.60;nan
57102;BME280;42982;54.558;18.508;2022-08-14T03:43:00;100946.41;;;19.59;nan
57102;BME280;42982;54.558;18.508;2022-08-14T03:44:08;100950.06;;;19.63;nan
57102;BME280;42982;54.558;18.508;2022-08-14T03:45:11;100948.78;;;19.70;nan
57102;BME280;42982;54.558;18.508;2022-08-14T03:46:16;100947.16;;;19.77;nan
57102;BME280;42982;54.558;18.508;2022-08-14T03:47:18;100946.16;;;19.82;nan
57102;BME280;42982;54.558;18.508;2022-08-14T03:48:23;100944.56;;;19.81;nan
57102;BME280;42982;54.558;18.508;2022-08-14T03:49:29;100944.81;;;19.88;nan
57102;BME280;42982;54.558;18.508;2022-08-14T03:50:30;100947.50;;;19.97;nan
57102;BME280;42982;54.558;18.508;2022-08-14T03:51:35;100949.22;;;20.01;nan
57102;BME280;42982;54.558;18.508;2022-08-14T03:52:41;100952.22;;;20.08;nan
57102;BME280;42982;54.558;18.508;2022-08-14T03:53:47;100948.16;;;20.14;nan
57102;BME280;42982;54.558;18.508;2022-08-14T03:54:50;100943.75;;;20.22;nan
57102;BME280;42982;54.558;18.508;2022-08-14T03:55:55;100941.63;;;20.28;nan
57102;BME280;42982;54.558;18.508;2022-08-14T03:57:00;100944.81;;;20.30;nan
57102;BME280;42982;54.558;18.508;2022-08-14T03:58:02;100944.13;;;20.33;nan
57102;BME280;42982;54.558;18.508;2022-08-14T03:59:07;100944.53;;;20.44;nan
57102;BME280;42982;54.558;18.508;2022-08-14T04:00:15;100940.28;;;20.55;nan
57102;BME280;42982;54.558;18.508;2022-08-14T04:01:21;100948.25;;;20.60;nan
57102;BME280;42982;54.558;18.508;2022-08-14T04:02:27;100946.78;;;20.63;nan
57102;BME280;42982;54.558;18.508;2022-08-14T04:03:29;100941.09;;;20.68;nan
57102;BME280;42982;54.558;18.508;2022-08-14T04:04:33;100947.28;;;20.77;nan
57102;BME280;42982;54.558;18.508;2022-08-14T04:05:35;100945.59;;;20.85;nan
57102;BME280;42982;54.558;18.508;2022-08-14T04:06:46;100943.09;;;20.92;nan
57102;BME280;42982;54.558;18.508;2022-08-14T04:07:48;100942.31;;;20.91;nan
57102;BME280;42982;54.558;18.508;2022-08-14T04:08:50;100940.72;;;20.90;nan
57102;BME280;42982;54.558;18.508;2022-08-14T04:09:59;100941.16;;;20.92;nan
57102;BME280;42982;54.558;18.508;2022-08-14T04:11:01;100939.34;;;20.96;nan
57102;BME280;42982;54.558;18.508;2022-08-14T04:12:07;100935.59;;;21.01;nan
57102;BME280;42982;54.558;18.508;2022-08-14T04:13:12;100935.03;;;21.08;nan
57102;BME280;42982;54.558;18.508;2022-08-14T04:14:19;100933.56;;;21.10;nan
57102;BME280;42982;54.558;18.508;2022-08-14T04:15:22;100942.47;;;21.19;nan
57102;BME280;42982;54.558;18.508;2022-08-14T04:16:25;100936.44;;;21.26;nan
57102;BME280;42982;54.558;18.508;2022-08-14T04:17:32;100942.13;;;21.33;nan
57102;BME280;42982;54.558;18.508;2022-08-14T04:18:41;100938.84;;;21.40;nan
57102;BME280;42982;54.558;18.508;2022-08-14T04:19:43;100943.97;;;21.54;nan
57102;BME280;42982;54.558;18.508;2022-08-14T04:20:48;100943.03;;;21.62;nan
57102;BME280;42982;54.558;18.508;2022-08-14T04:21:50;100930.72;;;21.68;nan
57102;BME280;42982;54.558;18.508;2022-08-14T04:22:54;100939.28;;;21.79;nan
57102;BME280;42982;54.558;18.508;2022-08-14T04:24:00;100935.94;;;21.85;nan
57102;BME280;42982;54.558;18.508;2022-08-14T04:25:08;100948.47;;;21.86;nan
57102;BME280;42982;54.558;18.508;2022-08-14T04:26:12;100938.75;;;22.01;nan
57102;BME280;42982;54.558;18.508;2022-08-14T04:27:15;100946.81;;;22.10;nan
57102;BME280;42982;54.558;18.508;2022-08-14T04:28:21;100937.38;;;22.19;nan
57102;BME280;42982;54.558;18.508;2022-08-14T04:29:26;100937.56;;;22.27;nan
57102;BME280;42982;54.558;18.508;2022-08-14T04:30:29;100930.31;;;22.34;nan
57102;BME280;42982;54.558;18.508;2022-08-14T04:31:38;100934.41;;;22.40;nan
57102;BME280;42982;54.558;18.508;2022-08-14T04:32:43;100933.00;;;22.47;nan
57102;BME280;42982;54.558;18.508;2022-08-14T04:33:47;100929.94;;;22.48;nan
57102;BME280;42982;54.558;18.508;2022-08-14T04:34:56;100935.16;;;22.53;nan
57102;BME280;42982;54.558;18.508;2022-08-14T04:35:58;100927.94;;;22.61;nan
57102;BME280;42982;54.558;18.508;2022-08-14T04:37:00;100936.09;;;22.73;nan
57102;BME280;42982;54.558;18.508;2022-08-14T04:38:21;100932.34;;;22.81;nan
57102;BME280;42982;54.558;18.508;2022-08-14T04:39:55;100929.09;;;22.91;nan
57102;BME280;42982;54.558;18.508;2022-08-14T04:41:17;100929.66;;;22.97;nan
57102;BME280;42982;54.558;18.508;2022-08-14T04:42:38;100929.22;;;23.11;nan
57102;BME280;42982;54.558;18.508;2022-08-14T04:44:01;100931.06;;;23.23;nan
57102;BME280;42982;54.558;18.508;2022-08-14T04:45:06;100939.81;;;23.28;nan
57102;BME280;42982;54.558;18.508;2022-08-14T04:46:14;100928.13;;;23.31;nan
57102;BME280;42982;54.558;18.508;2022-08-14T04:47:21;100925.13;;;23.36;nan
57102;BME280;42982;54.558;18.508;2022-08-14T04:48:42;100933.38;;;23.36;nan
57102;BME280;42982;54.558;18.508;2022-08-14T04:49:50;100919.81;;;23.44;nan
57102;BME280;42982;54.558;18.508;2022-08-14T04:50:54;100926.41;;;23.58;nan
57102;BME280;42982;54.558;18.508;2022-08-14T04:52:07;100923.47;;;23.67;nan
57102;BME280;42982;54.558;18.508;2022-08-14T04:53:24;100924.53;;;23.78;nan
57102;BME280;42982;54.558;18.508;2022-08-14T04:54:26;100922.31;;;23.84;nan
57102;BME280;42982;54.558;18.508;2022-08-14T04:55:28;100924.81;;;23.93;nan
57102;BME280;42982;54.558;18.508;2022-08-14T04:56:30;100914.59;;;23.90;nan
57102;BME280;42982;54.558;18.508;2022-08-14T04:57:32;100914.41;;;24.02;nan
57102;BME280;42982;54.558;18.508;2022-08-14T04:58:38;100916.69;;;24.16;nan
57102;BME280;42982;54.558;18.508;2022-08-14T04:59:43;100918.38;;;24.24;nan
57102;BME280;42982;54.558;18.508;2022-08-14T05:00:48;100921.28;;;24.31;nan
57102;BME280;42982;54.558;18.508;2022-08-14T05:01:51;100914.97;;;24.31;nan
57102;BME280;42982;54.558;18.508;2022-08-14T05:02:54;100911.09;;;24.32;nan
57102;BME280;42982;54.558;18.508;2022-08-14T05:04:00;100919.56;;;24.42;nan
57102;BME280;42982;54.558;18.508;2022-08-14T05:05:02;100914.28;;;24.53;nan
57102;BME280;42982;54.558;18.508;2022-08-14T05:06:09;100914.06;;;24.42;nan
57102;BME280;42982;54.558;18.508;2022-08-14T05:07:18;100919.69;;;24.49;nan
57102;BME280;42982;54.558;18.508;2022-08-14T05:08:23;100920.19;;;24.36;nan
57102;BME280;42982;54.558;18.508;2022-08-14T05:09:25;100913.19;;;24.38;nan
57102;BME280;42982;54.558;18.508;2022-08-14T05:10:32;100922.22;;;24.39;nan
57102;BME280;42982;54.558;18.508;2022-08-14T05:11:37;100924.03;;;24.50;nan
57102;BME280;42982;54.558;18.508;2022-08-14T05:12:39;100923.66;;;24.52;nan
57102;BME280;42982;54.558;18.508;2022-08-14T05:13:43;100919.63;;;24.65;nan
57102;BME280;42982;54.558;18.508;2022-08-14T05:14:49;100915.13;;;24.80;nan
57102;BME280;42982;54.558;18.508;2022-08-14T05:15:53;100913.72;;;24.90;nan
57102;BME280;42982;54.558;18.508;2022-08-14T05:16:56;100919.66;;;24.92;nan
57102;BME280;42982;54.558;18.508;2022-08-14T05:18:09;100918.94;;;24.95;nan
57102;BME280;42982;54.558;18.508;2022-08-14T05:19:16;100920.66;;;25.03;nan
57102;BME280;42982;54.558;18.508;2022-08-14T05:20:23;100916.00;;;24.84;nan
57102;BME280;42982;54.558;18.508;2022-08-14T05:21:37;100913.19;;;24.81;nan
57102;BME280;42982;54.558;18.508;2022-08-14T05:22:40;100912.66;;;24.94;nan
57102;BME280;42982;54.558;18.508;2022-08-14T05:23:45;100914.88;;;25.12;nan
57102;BME280;42982;54.558;18.508;2022-08-14T05:24:48;100920.16;;;25.20;nan
57102;BME280;42982;54.558;18.508;2022-08-14T05:25:51;100908.31;;;25.16;nan
57102;BME280;42982;54.558;18.508;2022-08-14T05:26:59;100917.72;;;25.15;nan
57102;BME280;42982;54.558;18.508;2022-08-14T05:29:19;100909.66;;;25.03;nan
57102;BME280;42982;54.558;18.508;2022-08-14T05:30:24;100915.25;;;25.10;nan
57102;BME280;42982;54.558;18.508;2022-08-14T05:31:28;100912.50;;;25.10;nan
57102;BME280;42982;54.558;18.508;2022-08-14T05:32:32;100919.03;;;25.02;nan
57102;BME280;42982;54.558;18.508;2022-08-14T05:33:35;100908.16;;;25.09;nan
57102;BME280;42982;54.558;18.508;2022-08-14T05:34:42;100924.25;;;25.07;nan
57102;BME280;42982;54.558;18.508;2022-08-14T05:35:51;100916.63;;;24.97;nan
57102;BME280;42982;54.558;18.508;2022-08-14T05:36:54;100919.03;;;25.02;nan
57102;BME280;42982;54.558;18.508;2022-08-14T05:37:59;100913.78;;;24.93;nan
57102;BME280;42982;54.558;18.508;2022-08-14T05:39:04;100921.06;;;25.05;nan
57102;BME280;42982;54.558;18.508;2022-08-14T05:40:12;100913.63;;;24.83;nan
57102;BME280;42982;54.558;18.508;2022-08-14T05:41:19;100910.28;;;24.96;nan
57102;BME280;42982;54.558;18.508;2022-08-14T05:42:21;100921.69;;;25.18;nan
57102;BME280;42982;54.558;18.508;2022-08-14T05:43:25;100916.56;;;25.16;nan
57102;BME280;42982;54.558;18.508;2022-08-14T05:44:30;100912.84;;;25.09;nan
57102;BME280;42982;54.558;18.508;2022-08-14T05:45:38;100911.47;;;25.18;nan
57102;BME280;42982;54.558;18.508;2022-08-14T05:46:41;100907.25;;;25.25;nan
57102;BME280;42982;54.558;18.508;2022-08-14T05:47:44;100915.50;;;25.25;nan
57102;BME280;42982;54.558;18.508;2022-08-14T05:48:55;100919.25;;;25.13;nan
57102;BME280;42982;54.558;18.508;2022-08-14T05:49:57;100914.66;;;25.20;nan
57102;BME280;42982;54.558;18.508;2022-08-14T05:51:02;100904.25;;;25.10;nan